Ana Sayfa
METAR-TAF:

METAR-TAF

Havaalanları :

Pearland Regional Airport

Houston / Pearland, Teksas, Amerika Birleşik Devletleri

Enlem: 29-31-16N, Boylam: 095-14-31W, yükseklik: 13 m

Güncel hava durumu gözlemi

Rapor saat 12:53 UTC de 39 dakika önce yapıldı.
Sakin rüzgar
Sıcaklık 9°C
Nem 93%
Basınç 1020 hPa
Görüş mesafesi: 8.0 km
Açık gökyüzü
Pus

METAR: KLVJ 081253Z AUTO 00000KT 5SM BR CLR 09/08 A3011 RMK AO2 SLP194 T00940078

Saat: 07:32 (13:32 UTC)


TAF: eksik

4.000'den fazla havaalanı için hava durumu gözlemleri ve tahminleri (METAR ve TAF raporları).

Kullanılabilir istasyonlar harita üzerinde sarı ve kırmızı noktalarla gösterilir.

İstasyonun adını görmek için fareyi noktanın üzerinde gezdirin.

Sonrasında hava gözlem ve tahminlerini görmek için tıklayın.

Haritayı değiştirmek için: yaklaştırmak için siyah artı işaretli yeşil düğmeye ve uzaklaştırmak için de eksi işaretli düğmeye hızla tıklayın; bitişik haritalar için yeşil okları kullanın.


METAR-TAF: